METAR Data
IDs: Format: Raw Decoded Include TAF

Data at: 1536 UTC 12 Dec 2018

PAPN 121535Z AUTO 20011KT 2SM BR SCT011 BKN034 OVC065 M05/M06 A2930 RMK AO2 PWINO FZRANO
PAPN 121529Z AUTO 21013KT 1 1/2SM BR FEW009 BKN016 OVC045 M04/M06 A2930 RMK AO2 PWINO FZRANO
PAPN 121527Z AUTO 21014KT 1 3/4SM BR SCT014 BKN030 OVC048 M04/M06 A2930 RMK AO2 PWINO FZRANO
PAPN 121456Z AUTO 21010KT 8SM FEW036 OVC048 M04/M06 A2930 RMK AO2 SLP922 T10441061 51014 PWINO FZRANO
PAPN 121433Z AUTO 24007KT 200V270 9SM SCT021 BKN037 OVC046 M04/M06 A2929 RMK AO2 PWINO FZRANO
PAPN 121410Z AUTO 23010KT 5SM BR SCT024 BKN029 OVC047 M04/M06 A2929 RMK AO2 PWINO FZRANO
PAPN 121356Z AUTO 24008KT 6SM HZ FEW027 BKN046 OVC060 M04/M08 A2928 RMK AO2 SLP918 T10441078 PWINO FZRANO
PAPN 121256Z AUTO 12004KT 10SM FEW046 BKN055 OVC100 M06/M11 A2927 RMK AO2 SLP914 T10611111 PWINO FZRANO
PAPN 121156Z AUTO 34004KT 10SM SCT050 BKN090 BKN120 M06/M11 A2926 RMK AO2 SLP908 T10611111 11033 21061 53005 PWINO FZRANO
PAPN 121056Z AUTO 33010KT 10SM BKN050 M04/M10 A2925 RMK AO2 SLP906 T10391100 PWINO FZRANO
PAPN 120956Z AUTO 33008KT 10SM FEW049 OVC110 M04/M09 A2924 RMK AO2 SLP905 T10441094 PWINO FZRANO
PAPN 120856Z AUTO 33009KT 10SM FEW047 M04/M10 A2924 RMK AO2 SLP904 T10391100 53006 PWINO FZRANO
PAPN 120756Z AUTO 32013KT 10SM FEW050 SCT070 M04/M10 A2923 RMK AO2 SLP900 T10391100 410111067 PWINO FZRANO
PAPN 120656Z AUTO 33014KT 10SM BKN045 BKN055 BKN100 M03/M08 A2922 RMK AO2 SLP897 T10331083 PWINO FZRANO
PAPN 120556Z AUTO 36004KT 10SM SCT043 SCT049 BKN060 M06/M08 A2922 RMK AO2 SLP897 T10611078 11022 21067 53002 PWINO FZRANO
PAPN 120456Z AUTO 35005KT 10SM FEW049 M06/M07 A2922 RMK AO2 SLP895 T10561072 PWINO FZRANO
PAPN 120356Z AUTO 33006KT 10SM FEW029 SCT090 BKN110 M05/M06 A2921 RMK AO2 PK WND 31032/0315 SLP893 T10501061 PWINO FZRANO
PAPN 120330Z AUTO 33015KT 5SM BR SCT007 BKN038 OVC100 M04/M06 A2921 RMK AO2 PK WND 31032/0315 PWINO FZRANO
PAPN 120327Z AUTO 33014KT 2 1/2SM BR SCT005 BKN016 OVC095 M04/M05 A2921 RMK AO2 PK WND 31032/0315 CIG 010V026 PWINO FZRANO
PAPN 120323Z AUTO 33021G32KT 1 1/4SM BR BKN005 BKN013 OVC036 M04/M05 A2920 RMK AO2 PK WND 31032/0315 CIG 003V010 PWINO FZRANO
PAPN 120319Z AUTO 32024G32KT 1SM BR SCT005 BKN013 OVC024 M04/M05 A2921 RMK AO2 PK WND 31032/0315 PWINO FZRANO
PAPN 120305Z AUTO 30024G29KT 3/4SM BR FEW004 SCT015 BKN025 M04/M06 A2921 RMK AO2 PK WND 30029/0305 VIS 1/4V5 PWINO FZRANO
PAPN 120258Z AUTO 30021G24KT 1 1/2SM BR FEW004 SCT015 BKN027 M04/M06 A2922 RMK AO2 PWINO FZRANO
PAPN 120256Z AUTO 31016G22KT 6SM BR FEW015 SCT021 BKN027 M04/M06 A2922 RMK AO2 WSHFT 0143 SLP895 T10391056 51002 PWINO FZRANO
PAPN 120235Z AUTO 31007KT 10SM FEW008 SCT012 BKN042 M04/M07 A2921 RMK AO2 WSHFT 0143 PWINO FZRANO
PAPN 120227Z AUTO 30006KT 2SM BR FEW006 SCT010 BKN042 M04/M06 A2921 RMK AO2 WSHFT 0143 PWINO FZRANO
PAPN 120220Z AUTO 30009KT 1SM BR SCT010 BKN025 OVC041 M03/M06 A2922 RMK AO2 WSHFT 0143 PWINO FZRANO
PAPN 120216Z AUTO 30010KT 2SM HZ FEW010 BKN029 OVC043 M03/M06 A2922 RMK AO2 WSHFT 0143 PWINO FZRANO
PAPN 120203Z AUTO 31014KT 10SM FEW019 SCT031 OVC043 M03/M06 A2922 RMK AO2 WSHFT 0143 PWINO FZRANO
PAPN 120156Z AUTO 33014KT 10SM FEW019 BKN030 OVC050 M03/M07 A2922 RMK AO2 SLP895 T10331072 PWINO FZRANO
PAPN 120153Z AUTO 33011KT 10SM FEW019 BKN036 OVC050 M03/M07 A2922 RMK AO2 PWINO FZRANO
PAPN 120131Z AUTO 29006KT 3SM HZ FEW012 BKN023 OVC055 M03/M06 A2922 RMK AO2 PWINO FZRANO
PAPN 120127Z AUTO 29006KT 1 1/2SM HZ SCT012 BKN018 OVC031 M03/M06 A2921 RMK AO2 PWINO FZRANO
PAPN 120119Z AUTO 29015G19KT 2 1/2SM HZ SCT015 BKN029 OVC041 M03/M06 A2922 RMK AO2 VIS 1 1/4V5 PWINO FZRANO
PAPN 120056Z AUTO 32010KT 10SM BKN046 OVC055 M02/M08 A2921 RMK AO2 SLP893 T10221083 PWINO FZRANO
PAPN 112356Z AUTO 31013KT 10SM BKN043 BKN050 M02/M08 A2921 RMK AO2 SLP894 T10221078 11017 21028 50011 PWINO FZRANO
PAPN 112256Z AUTO 32014KT 10SM BKN044 M02/M08 A2921 RMK AO2 SLP894 T10221083 PWINO FZRANO
PAPN 112156Z AUTO 32018G23KT 10SM BKN035 OVC044 M02/M08 A2920 RMK AO2 SLP889 T10171078 PWINO FZRANO
PAPN 112056Z AUTO 31018G24KT 10SM FEW023 BKN040 OVC065 M02/M06 A2918 RMK AO2 PK WND 31027/2040 SLP883 T10221061 51027 PWINO FZRANO
PAPN 112028Z AUTO 30017G26KT 5SM BR FEW011 SCT019 BKN035 M03/M05 A2917 RMK AO2 PK WND 30026/2019 PWINO FZRANO
PAPN 112018Z AUTO 30021KT 2 1/2SM BR FEW016 BKN036 OVC044 M03/M05 A2917 RMK AO2 PK WND 30026/2016 VIS 1 1/4V5 PWINO FZRANO
PAPN 112007Z AUTO 30021G26KT 4SM BR SCT019 BKN032 OVC049 M03/M05 A2917 RMK AO2 PK WND 30026/2006 PWINO FZRANO
PAPN 112000Z AUTO 31021G28KT 2SM BR FEW010 SCT021 BKN034 M03/M05 A2917 RMK AO2 VIS 1/2V5 PWINO FZRANO
PAPN 111956Z AUTO 31024G28KT 1 1/4SM BR FEW010 BKN021 BKN033 M03/M05 A2916 RMK AO2 PK WND 30030/1921 SLP877 T10281050 PWINO FZRANO
PAPN 111951Z AUTO 31025G28KT 1 1/2SM HZ FEW010 BKN019 OVC049 M02/M05 A2916 RMK AO2 PK WND 30030/1921 PWINO FZRANO
PAPN 111938Z AUTO 30019G23KT 3SM BR FEW010 BKN031 OVC070 M03/M04 A2916 RMK AO2 PK WND 30030/1921 PWINO FZRANO
PAPN 111936Z AUTO 29019G23KT 2SM BR FEW010 BKN020 OVC070 M03/M04 A2916 RMK AO2 PK WND 30030/1921 CIG 015V024 PWINO FZRANO
PAPN 111933Z AUTO 29017KT 1SM BR FEW010 BKN020 OVC047 M03/M04 A2916 RMK AO2 PK WND 30030/1921 CIG 015V024 PWINO FZRANO
PAPN 111925Z AUTO 30023G30KT 1 1/2SM HZ FEW019 BKN032 OVC042 M02/M05 A2916 RMK AO2 PK WND 30030/1921 PRESRR PWINO FZRANO
PAPN 111856Z AUTO 30021G30KT 6SM HZ FEW015 BKN040 OVC048 M02/M06 A2913 RMK AO2 PK WND 30034/1813 SLP866 T10221056 PWINO FZRANO
PAPN 111849Z AUTO 30020G23KT 7SM FEW010 BKN031 OVC048 M03/M04 A2913 RMK AO2 PK WND 30034/1813 PWINO FZRANO
PAPN 111842Z AUTO 29017G26KT 2SM BR FEW010 BKN031 OVC043 M03/M04 A2913 RMK AO2 PK WND 30034/1813 VIS 1/2V5 PWINO FZRANO
PAPN 111837Z AUTO 28021G28KT 1 1/4SM BR FEW010 BKN029 OVC033 M03/M04 A2913 RMK AO2 PK WND 30034/1813 VIS 1/2V4 PWINO FZRANO
PAPN 111828Z AUTO 28021G28KT 1 3/4SM BR FEW009 SCT027 OVC035 M02/M04 A2913 RMK AO2 PK WND 30034/1813 PWINO FZRANO
PAPN 111756Z AUTO 31025G33KT 7SM BKN035 OVC043 M02/M06 A2910 RMK AO2 PK WND 31033/1750 SLP856 T10171061 11011 21028 53026 PWINO FZRANO
PAPN 111656Z AUTO 29022G31KT 8SM SCT014 BKN033 OVC043 M02/M04 A2907 RMK AO2 PK WND 29038/1606 SLP847 T10221044 PWINO FZRANO
PAPN 111648Z AUTO 29022G30KT 3SM BR SCT014 BKN024 OVC065 M03/M04 A2907 RMK AO2 PK WND 29038/1606 PWINO FZRANO
PAPN 111643Z AUTO 30026G31KT 1 1/2SM BR BKN014 BKN024 OVC038 M03/M04 A2907 RMK AO2 PK WND 29038/1606 VIS 3/4V5 PWINO FZRANO
PAPN 111634Z AUTO 30024G32KT 1SM BR FEW009 BKN023 OVC038 M02/M04 A2907 RMK AO2 PK WND 29038/1606 PWINO FZRANO
PAPN 111628Z AUTO 30027G32KT 1 3/4SM BR SCT016 BKN025 OVC044 M02/M04 A2907 RMK AO2 PK WND 29038/1606 VIS 3/4V5 PWINO FZRANO
PAPN 111622Z AUTO 30023G32KT 6SM BR SCT016 BKN025 OVC047 M02/M04 A2907 RMK AO2 PK WND 29038/1606 PWINO FZRANO
PAPN 111615Z AUTO 30024G38KT 2 1/2SM BR FEW014 BKN023 OVC044 M02/M04 A2906 RMK AO2 PK WND 29038/1606 PWINO FZRANO
PAPN 111605Z AUTO 30030G35KT 1 3/4SM HZ FEW023 BKN036 OVC050 M01/M06 A2905 RMK AO2 PK WND 30035/1603 PWINO FZRANO
PAPN 111556Z AUTO 30029G34KT 10SM BKN035 BKN044 OVC050 M02/M06 A2904 RMK AO2 PK WND 30039/1515 SLP837 T10171061 PWINO FZRANO
PAPN 111456Z AUTO 30028G39KT 10SM FEW016 BKN033 OVC044 M02/M06 A2902 RMK AO2 PK WND 29040/1401 SLP830 T10171061 51033 PWINO FZRANO
PAPN 111356Z AUTO 30029G39KT 3SM HZ FEW010 BKN031 OVC050 M02/M05 A2900 RMK AO2 PK WND 30045/1340 SLP822 T10221050 PWINO FZRANO
PAPN 111352Z AUTO 30034G39KT 2SM BR FEW008 SCT014 BKN028 M02/M04 A2900 RMK AO2 PK WND 30045/1340 PWINO FZRANO
PAPN 111349Z AUTO 30029G45KT 1 1/4SM BR SCT011 SCT023 BKN028 M02/M04 A2900 RMK AO2 PK WND 30045/1340 PWINO FZRANO
PAPN 111341Z AUTO 30036G45KT 1SM BR FEW012 BKN028 OVC035 M02/M04 A2900 RMK AO2 PK WND 30045/1340 VIS 1/2V3 PWINO FZRANO
PAPN 111328Z AUTO 30034G40KT 1 3/4SM HZ BKN030 OVC036 M02/M05 A2898 RMK AO2 PK WND 30044/1259 VIS 1 1/4V5 PWINO FZRANO
PAPN 111256Z AUTO 30030G39KT 9SM BKN034 OVC044 M02/M06 A2897 RMK AO2 PK WND 30047/1227 SLP811 T10171056 PWINO FZRANO
PAPN 111238Z AUTO 30036G43KT 4SM HZ FEW030 OVC038 M02/M06 A2896 RMK AO2 PK WND 30047/1227 PWINO FZRANO
PAPN 111221Z AUTO 30040G44KT 2SM HZ BKN030 OVC037 M02/M05 A2894 RMK AO2 PK WND 30047/1209 VIS 1V5 PWINO FZRANO
PAPN 111209Z AUTO 30039G47KT 1 3/4SM HZ BKN032 OVC039 M02/M06 A2893 RMK AO2 PK WND 30047/1209 VIS 3/4V3 PWINO FZRANO
PAPN 111156Z AUTO 30034G45KT 2 1/2SM HZ OVC033 M02/M05 A2893 RMK AO2 PK WND 30049/1059 VIS 1 3/4V5 SLP797 70006 T10171050 10000 21022 51059 PWINO FZRANO
PAPN 111123Z AUTO 30039G47KT 1 1/2SM HZ BKN031 OVC039 M02/M05 A2890 RMK AO2 PK WND 30049/1059 PWINO FZRANO
PAPN 111113Z AUTO 30040G48KT 2 1/2SM HZ FEW027 BKN034 OVC042 M02/M06 A2889 RMK AO2 PK WND 30049/1059 VIS 1 1/2V5 PWINO FZRANO
PAPN 111056Z AUTO 29037G47KT 8SM OVC027 M02/M06 A2887 RMK AO2 PK WND 28050/1041 SLP779 T10171056 PWINO FZRANO
PAPN 110956Z AUTO 29040G51KT 4SM HZ SCT021 OVC028 M02/M04 A2881 RMK AO2 PK WND 28051/0954 SLP758 T10171044 PWINO FZRANO
PAPN 110903Z AUTO 29037G47KT 6SM BR SCT011 BKN018 OVC030 M01/M03 A2876 RMK AO2 PK WND 29046/0859 PWINO FZRANO
PAPN 110856Z AUTO 29039G49KT 2 1/2SM BR FEW009 BKN015 OVC023 M02/M02 A2875 RMK AO2 PK WND 29049/0853 VIS 1 1/4V5 SLP738 T10171022 53039 PWINO FZRANO
PAPN 110853Z AUTO 29041G49KT 2SM BR SCT009 BKN017 OVC023 M01/M02 A2875 RMK AO2 PK WND 29049/0853 PWINO FZRANO
PAPN 110850Z AUTO 29034G45KT 1 1/4SM BR BKN011 OVC017 M02/M02 A2876 RMK AO2 PK WND 28049/0801 PWINO FZRANO
PAPN 110847Z AUTO 29034G45KT 1SM BR BKN013 OVC019 M02/M02 A2875 RMK AO2 PK WND 28049/0801 PWINO FZRANO
PAPN 110842Z AUTO 29038G48KT 1/2SM FZFG FEW008 OVC013 M02/M02 A2874 RMK AO2 PK WND 28049/0801 PWINO FZRANO
PAPN 110835Z AUTO 28037G47KT 3/4SM BR SCT008 OVC015 M01/M02 A2873 RMK AO2 PK WND 28049/0801 PWINO FZRANO
PAPN 110828Z AUTO 29034G47KT 1SM BR SCT010 OVC015 M01/M02 A2874 RMK AO2 PK WND 28049/0801 PWINO FZRANO
PAPN 110821Z AUTO 29032G45KT 1 1/2SM BR OVC013 M01/M02 A2874 RMK AO2 PK WND 28049/0801 VIS 3/4V3 PWINO FZRANO
PAPN 110817Z AUTO 29036G45KT 1SM BR SCT010 OVC015 M01/M02 A2873 RMK AO2 PK WND 28049/0801 PWINO FZRANO
PAPN 110810Z AUTO 28033G49KT 3/4SM BR FEW004 OVC011 M01/M02 A2873 RMK AO2 PK WND 28049/0801 PWINO FZRANO
PAPN 110756Z AUTO 29040G46KT 1/2SM FZFG BKN007 OVC011 M01/M02 A2872 RMK AO2 PK WND 27048/0729 CIG 003V008 SLP725 T10111017 400221011 PWINO FZRANO
PAPN 110746Z AUTO 28037G47KT 1/2SM FZFG OVC007 M01/M02 A2871 RMK AO2 PK WND 27048/0729 CIG 003V009 PWINO FZRANO
PAPN 110734Z AUTO 28032G48KT 1/4SM FZFG BKN007 OVC011 M01/M02 A2870 RMK AO2 PK WND 27048/0729 CIG 004V010 PWINO FZRANO
PAPN 110725Z AUTO 27033G42KT 1/2SM FZFG OVC009 M01/M02 A2869 RMK AO2 PK WND 27042/0721 CIG 005V014 PWINO FZRANO
PAPN 110711Z AUTO 27033G41KT 1/2SM FZFG SCT008 OVC012 M01/M02 A2868 RMK AO2 PK WND 27041/0708 PWINO FZRANO
PAPN 110702Z AUTO 28029G40KT 3/4SM BR BKN009 OVC012 M01/M02 A2868 RMK AO2 PK WND 27040/0657 CIG 005V011 PWINO FZRANO
PAPN 110656Z AUTO 27033G44KT 3/4SM BR OVC010 M01/M02 A2867 RMK AO2 PK WND 27045/0634 SLP709 T10061017 PWINO FZRANO
PAPN 110636Z AUTO 27032G45KT 3/4SM BR SCT007 OVC012 M01/M02 A2865 RMK AO2 PK WND 27045/0634 PWINO FZRANO
PAPN 110627Z AUTO 27029G40KT 1SM BR FEW007 BKN012 OVC017 M01/M02 A2865 RMK AO2 PK WND 27043/0610 PWINO FZRANO
PAPN 110556Z AUTO 27029G39KT 1 1/2SM BR FEW008 OVC012 00/M01 A2864 RMK AO2 PK WND 26040/0539 SLP700 T00001011 10017 20000 51009 PWINO FZRANO
PAPN 110554Z AUTO 27028G39KT 1 1/2SM BR FEW008 OVC012 00/M01 A2863 RMK AO2 PK WND 26040/0539 VIS 1V4 PWINO FZRANO
PAPN 110539Z AUTO 26034G40KT 1 3/4SM BR BKN014 BKN019 OVC034 00/M01 A2864 RMK AO2 PK WND 26040/0539 VIS 1 1/4V2 1/2 PWINO FZRANO
PAPN 110535Z AUTO 27033G40KT 2SM BR FEW006 BKN017 OVC034 00/M01 A2862 RMK AO2 PK WND 27040/0526 PWINO FZRANO
PAPN 110522Z AUTO 26030G37KT 2SM BR SCT006 BKN011 OVC015 00/M01 A2862 RMK AO2 PK WND 26037/0522 CIG 009V012 PWINO FZRANO
PAPN 110516Z AUTO 27029G37KT 1 1/4SM BR BKN007 OVC014 00/M01 A2862 RMK AO2 PK WND 26037/0512 CIG 004V011 PWINO FZRANO
PAPN 110508Z AUTO 26027G36KT 1SM BR BKN007 OVC012 00/M01 A2862 RMK AO2 PK WND 26036/0505 CIG 004V010 PWINO FZRANO
PAPN 110456Z AUTO 26031G38KT 1 3/4SM BR BKN009 BKN013 OVC018 00/M01 A2862 RMK AO2 PK WND 26038/0456 VIS 1V3 CIG 004V010 SLP692 T00001011 PWINO FZRANO
PAPN 110451Z AUTO 26029G38KT 2SM BR BKN007 BKN013 OVC018 00/M01 A2862 RMK AO2 PK WND 26038/0447 VIS 3/4V3 CIG 004V011 PWINO FZRANO
PAPN 110439Z AUTO 26027G35KT 1 3/4SM BR SCT008 BKN014 OVC034 00/M01 A2862 RMK AO2 PK WND 26036/0428 VIS 1V3 PWINO FZRANO
PAPN 110430Z AUTO 26028G36KT 1 3/4SM BR SCT006 BKN016 OVC034 00/M01 A2861 RMK AO2 PK WND 26036/0428 VIS 1V3 PWINO FZRANO
PAPN 110424Z AUTO 26027G35KT 2SM BR FEW006 BKN013 OVC031 00/M01 A2861 RMK AO2 PK WND 26035/0415 PWINO FZRANO